THA112 VYYY-VTBS
Flight info
| Callsign | THA112 |
|---|---|
| Flight time | 1h 27m |
| Altitude | 39000 |
| Route | MARDO1A BETNO G463 TARED WILLA1C |
| Aircraft | A20N/M-SDE2E3FGHIRWXY/LB1 |
Departure
| Time | 2026-05-06 15:53 |
|---|---|
| Airport | Yangon International Airport (VYYY) |
Arrival
| Time | 2026-05-06 17:21 |
|---|---|
| Airport | Suvarnabhumi Airport (VTBS) |
| Time | Latitude | Longitude | Altitude | Speed | Heading |
|---|---|---|---|---|---|
| 2026-05-06 15:33 | 16.90173 | 96.13370 | 96 ft | 0 kts | 122° |
| 2026-05-06 15:40 | 16.90174 | 96.13368 | 95 ft | 2 kts | 122° |
| 2026-05-06 15:41 | 16.90182 | 96.13355 | 95 ft | 2 kts | 123° |
| 2026-05-06 15:41 | 16.90190 | 96.13342 | 95 ft | 2 kts | 123° |
| 2026-05-06 15:41 | 16.90199 | 96.13328 | 95 ft | 2 kts | 124° |
| 2026-05-06 15:41 | 16.90209 | 96.13314 | 95 ft | 2 kts | 126° |
| 2026-05-06 15:42 | 16.90219 | 96.13300 | 95 ft | 2 kts | 128° |
| 2026-05-06 15:42 | 16.90229 | 96.13287 | 95 ft | 2 kts | 130° |
| 2026-05-06 15:42 | 16.90240 | 96.13274 | 94 ft | 2 kts | 136° |
| 2026-05-06 15:42 | 16.90252 | 96.13263 | 93 ft | 2 kts | 148° |
| 2026-05-06 15:43 | 16.90268 | 96.13256 | 94 ft | 2 kts | 188° |
| 2026-05-06 15:43 | 16.90278 | 96.13260 | 94 ft | 1 kts | 213° |
| 2026-05-06 15:43 | 16.90279 | 96.13260 | 94 ft | 0 kts | 214° |
| 2026-05-06 15:46 | 16.90271 | 96.13255 | 94 ft | 1 kts | 214° |
| 2026-05-06 15:46 | 16.90252 | 96.13242 | 95 ft | 0 kts | 214° |
| 2026-05-06 15:46 | 16.90249 | 96.13239 | 95 ft | 0 kts | 214° |
| 2026-05-06 15:47 | 16.90235 | 96.13230 | 95 ft | 7 kts | 213° |
| 2026-05-06 15:48 | 16.90160 | 96.13179 | 95 ft | 18 kts | 213° |
| 2026-05-06 15:48 | 16.90036 | 96.13096 | 96 ft | 25 kts | 213° |
| 2026-05-06 15:48 | 16.89874 | 96.12985 | 96 ft | 31 kts | 212° |
| 2026-05-06 15:48 | 16.89731 | 96.12842 | 95 ft | 26 kts | 273° |
| 2026-05-06 15:49 | 16.89742 | 96.12806 | 97 ft | 2 kts | 298° |
| 2026-05-06 15:49 | 16.89744 | 96.12802 | 97 ft | 0 kts | 299° |
| 2026-05-06 15:50 | 16.89745 | 96.12799 | 97 ft | 2 kts | 299° |
| 2026-05-06 15:50 | 16.89764 | 96.12766 | 97 ft | 9 kts | 301° |
| 2026-05-06 15:50 | 16.89823 | 96.12722 | 97 ft | 12 kts | 1° |
| 2026-05-06 15:50 | 16.89848 | 96.12732 | 99 ft | 0 kts | 28° |
| 2026-05-06 15:53 | 16.89861 | 96.12740 | 98 ft | 18 kts | 30° |
| 2026-05-06 15:53 | 16.90272 | 96.13016 | 94 ft | 118 kts | 33° |
| 2026-05-06 15:53 | 16.91178 | 96.13632 | 216 ft | 183 kts | 34° |
| 2026-05-06 15:53 | 16.92315 | 96.14445 | 876 ft | 208 kts | 36° |
| 2026-05-06 15:54 | 16.93500 | 96.15355 | 1901 ft | 213 kts | 35° |
| 2026-05-06 15:54 | 16.94714 | 96.16264 | 2676 ft | 229 kts | 34° |
| 2026-05-06 15:54 | 16.96128 | 96.17256 | 3180 ft | 257 kts | 31° |
| 2026-05-06 15:54 | 16.97661 | 96.18356 | 3879 ft | 276 kts | 45° |
| 2026-05-06 15:55 | 16.98669 | 96.20051 | 4958 ft | 276 kts | 73° |
| 2026-05-06 15:55 | 16.98831 | 96.22026 | 6112 ft | 274 kts | 99° |
| 2026-05-06 15:55 | 16.98136 | 96.23868 | 7098 ft | 277 kts | 124° |
| 2026-05-06 15:55 | 16.96971 | 96.25504 | 8004 ft | 283 kts | 126° |
| 2026-05-06 15:56 | 16.95955 | 96.27277 | 8979 ft | 287 kts | 116° |
| 2026-05-06 15:56 | 16.95242 | 96.29240 | 9908 ft | 292 kts | 107° |
| 2026-05-06 15:56 | 16.94762 | 96.31337 | 10425 ft | 312 kts | 102° |
| 2026-05-06 15:56 | 16.94396 | 96.33668 | 10738 ft | 337 kts | 98° |
| 2026-05-06 15:57 | 16.94082 | 96.36154 | 11237 ft | 351 kts | 98° |
| 2026-05-06 15:57 | 16.93775 | 96.38704 | 12009 ft | 356 kts | 97° |
| 2026-05-06 15:57 | 16.93459 | 96.41289 | 12781 ft | 362 kts | 97° |
| 2026-05-06 15:57 | 16.93128 | 96.43921 | 13552 ft | 367 kts | 98° |
| 2026-05-06 15:58 | 16.92791 | 96.46546 | 14243 ft | 371 kts | 98° |
| 2026-05-06 15:58 | 16.92444 | 96.49230 | 14996 ft | 374 kts | 98° |
| 2026-05-06 15:58 | 16.92092 | 96.51930 | 15720 ft | 377 kts | 98° |
| 2026-05-06 15:58 | 16.91738 | 96.54649 | 16465 ft | 379 kts | 98° |
| 2026-05-06 15:59 | 16.91382 | 96.57382 | 17231 ft | 380 kts | 98° |
| 2026-05-06 15:59 | 16.91024 | 96.60126 | 18016 ft | 381 kts | 98° |
| 2026-05-06 15:59 | 16.90666 | 96.62871 | 18714 ft | 381 kts | 98° |
| 2026-05-06 15:59 | 16.90307 | 96.65619 | 19379 ft | 383 kts | 98° |
| 2026-05-06 16:00 | 16.89940 | 96.68424 | 19626 ft | 397 kts | 98° |
| 2026-05-06 16:00 | 16.89565 | 96.71283 | 20056 ft | 404 kts | 98° |
| 2026-05-06 16:00 | 16.89183 | 96.74197 | 20623 ft | 407 kts | 98° |
| 2026-05-06 16:00 | 16.88797 | 96.77135 | 21183 ft | 410 kts | 98° |
| 2026-05-06 16:01 | 16.88306 | 96.80078 | 21721 ft | 413 kts | 106° |
| 2026-05-06 16:01 | 16.87205 | 96.82862 | 22255 ft | 416 kts | 120° |
| 2026-05-06 16:01 | 16.85487 | 96.85269 | 22765 ft | 419 kts | 134° |
| 2026-05-06 16:01 | 16.83343 | 96.87364 | 23282 ft | 422 kts | 137° |
| 2026-05-06 16:02 | 16.81163 | 96.89453 | 23724 ft | 426 kts | 137° |
| 2026-05-06 16:02 | 16.78971 | 96.91558 | 24123 ft | 430 kts | 137° |
| 2026-05-06 16:02 | 16.76763 | 96.93680 | 24553 ft | 433 kts | 137° |
| 2026-05-06 16:02 | 16.74562 | 96.95798 | 24928 ft | 437 kts | 138° |
| 2026-05-06 16:03 | 16.72314 | 96.97961 | 25322 ft | 440 kts | 138° |
| 2026-05-06 16:03 | 16.70054 | 97.00136 | 25708 ft | 444 kts | 138° |
| 2026-05-06 16:03 | 16.67779 | 97.02325 | 26100 ft | 446 kts | 138° |
| 2026-05-06 16:03 | 16.65486 | 97.04530 | 26493 ft | 449 kts | 138° |
| 2026-05-06 16:04 | 16.63179 | 97.06748 | 26866 ft | 452 kts | 138° |
| 2026-05-06 16:04 | 16.60858 | 97.08979 | 27232 ft | 455 kts | 138° |
| 2026-05-06 16:04 | 16.58538 | 97.11193 | 27595 ft | 458 kts | 140° |
| 2026-05-06 16:04 | 16.56017 | 97.13236 | 27947 ft | 460 kts | 145° |
| 2026-05-06 16:05 | 16.53398 | 97.15167 | 28288 ft | 463 kts | 145° |
| 2026-05-06 16:05 | 16.50762 | 97.17119 | 28636 ft | 466 kts | 145° |
| 2026-05-06 16:05 | 16.48117 | 97.19082 | 28972 ft | 468 kts | 145° |
| 2026-05-06 16:05 | 16.45452 | 97.21060 | 29321 ft | 471 kts | 145° |
| 2026-05-06 16:06 | 16.42779 | 97.23044 | 29650 ft | 473 kts | 145° |
| 2026-05-06 16:06 | 16.40082 | 97.25045 | 29978 ft | 476 kts | 145° |
| 2026-05-06 16:06 | 16.37412 | 97.27025 | 30255 ft | 478 kts | 145° |
| 2026-05-06 16:06 | 16.34694 | 97.29040 | 30553 ft | 481 kts | 145° |
| 2026-05-06 16:07 | 16.31963 | 97.31063 | 30860 ft | 483 kts | 145° |
| 2026-05-06 16:07 | 16.29219 | 97.33095 | 31205 ft | 484 kts | 145° |
| 2026-05-06 16:07 | 16.26469 | 97.35131 | 31588 ft | 484 kts | 145° |
| 2026-05-06 16:07 | 16.24638 | 97.36486 | 31853 ft | 484 kts | 145° |
| 2026-05-06 16:08 | 16.15990 | 97.42883 | 33051 ft | 483 kts | 145° |
| 2026-05-06 16:08 | 16.13244 | 97.44913 | 33421 ft | 483 kts | 145° |
| 2026-05-06 16:09 | 16.10507 | 97.46936 | 33774 ft | 483 kts | 145° |
| 2026-05-06 16:09 | 16.07760 | 97.48965 | 34102 ft | 483 kts | 145° |
| 2026-05-06 16:09 | 16.05028 | 97.50982 | 34489 ft | 480 kts | 145° |
| 2026-05-06 16:09 | 16.02303 | 97.52994 | 34869 ft | 478 kts | 145° |
| 2026-05-06 16:10 | 15.99597 | 97.54991 | 35230 ft | 476 kts | 145° |
| 2026-05-06 16:10 | 15.96892 | 97.56986 | 35595 ft | 475 kts | 145° |
| 2026-05-06 16:10 | 15.94234 | 97.58946 | 35959 ft | 473 kts | 145° |
| 2026-05-06 16:10 | 15.91552 | 97.60923 | 36344 ft | 471 kts | 145° |
| 2026-05-06 16:11 | 15.88889 | 97.62886 | 36709 ft | 469 kts | 145° |
| 2026-05-06 16:11 | 15.86233 | 97.64842 | 36849 ft | 467 kts | 145° |
| 2026-05-06 16:11 | 15.80941 | 97.68739 | 36871 ft | 465 kts | 145° |
| 2026-05-06 16:12 | 15.75654 | 97.72629 | 36876 ft | 465 kts | 145° |
| 2026-05-06 16:12 | 15.70368 | 97.76515 | 36875 ft | 466 kts | 145° |
| 2026-05-06 16:13 | 15.65119 | 97.80373 | 36880 ft | 465 kts | 145° |
| 2026-05-06 16:13 | 15.59824 | 97.84261 | 36879 ft | 466 kts | 145° |
| 2026-05-06 16:14 | 15.54532 | 97.88144 | 36885 ft | 465 kts | 145° |
| 2026-05-06 16:14 | 15.49237 | 97.92028 | 36882 ft | 465 kts | 145° |
| 2026-05-06 16:15 | 15.43945 | 97.95907 | 36887 ft | 465 kts | 145° |
| 2026-05-06 16:15 | 15.38676 | 97.99766 | 36892 ft | 465 kts | 145° |
| 2026-05-06 16:16 | 15.33387 | 98.03638 | 36895 ft | 465 kts | 145° |
| 2026-05-06 16:16 | 15.28094 | 98.07509 | 36900 ft | 465 kts | 145° |
| 2026-05-06 16:17 | 15.22812 | 98.11371 | 36904 ft | 465 kts | 145° |
| 2026-05-06 16:17 | 15.17599 | 98.15180 | 36906 ft | 464 kts | 145° |
| 2026-05-06 16:18 | 15.12407 | 98.19146 | 36906 ft | 464 kts | 138° |
| 2026-05-06 16:18 | 15.08239 | 98.24210 | 36911 ft | 463 kts | 121° |
| 2026-05-06 16:19 | 15.05249 | 98.30053 | 36911 ft | 462 kts | 117° |
| 2026-05-06 16:19 | 15.02310 | 98.35966 | 36916 ft | 461 kts | 117° |
| 2026-05-06 16:20 | 14.99370 | 98.41865 | 36916 ft | 461 kts | 117° |
| 2026-05-06 16:20 | 14.96432 | 98.47760 | 36919 ft | 460 kts | 117° |
| 2026-05-06 16:21 | 14.94962 | 98.50710 | 36783 ft | 461 kts | 117° |
| 2026-05-06 16:21 | 14.93508 | 98.53623 | 36502 ft | 462 kts | 117° |
| 2026-05-06 16:21 | 14.92035 | 98.56575 | 36207 ft | 462 kts | 117° |
| 2026-05-06 16:21 | 14.90557 | 98.59536 | 35921 ft | 463 kts | 117° |
| 2026-05-06 16:22 | 14.89074 | 98.62505 | 35645 ft | 464 kts | 117° |
| 2026-05-06 16:22 | 14.87604 | 98.65448 | 35358 ft | 465 kts | 117° |
| 2026-05-06 16:22 | 14.86103 | 98.68451 | 35080 ft | 466 kts | 117° |
| 2026-05-06 16:22 | 14.84626 | 98.71406 | 34806 ft | 466 kts | 117° |
| 2026-05-06 16:23 | 14.83143 | 98.74371 | 34537 ft | 467 kts | 117° |
| 2026-05-06 16:23 | 14.81640 | 98.77375 | 34261 ft | 467 kts | 117° |
| 2026-05-06 16:23 | 14.80148 | 98.80355 | 33994 ft | 468 kts | 117° |
| 2026-05-06 16:23 | 14.78656 | 98.83335 | 33713 ft | 469 kts | 117° |
| 2026-05-06 16:24 | 14.77160 | 98.86320 | 33403 ft | 469 kts | 117° |
| 2026-05-06 16:24 | 14.75646 | 98.89341 | 33095 ft | 470 kts | 117° |
| 2026-05-06 16:24 | 14.74146 | 98.92332 | 32797 ft | 471 kts | 117° |
| 2026-05-06 16:24 | 14.72646 | 98.95324 | 32504 ft | 471 kts | 117° |
| 2026-05-06 16:25 | 14.71126 | 98.98353 | 32186 ft | 472 kts | 117° |
| 2026-05-06 16:25 | 14.69621 | 99.01352 | 31878 ft | 473 kts | 117° |
| 2026-05-06 16:25 | 14.68109 | 99.04361 | 31570 ft | 473 kts | 117° |
| 2026-05-06 16:25 | 14.66590 | 99.07386 | 31262 ft | 473 kts | 117° |
| 2026-05-06 16:26 | 14.65082 | 99.10387 | 30962 ft | 474 kts | 117° |
| 2026-05-06 16:26 | 14.63548 | 99.13437 | 30667 ft | 475 kts | 117° |
| 2026-05-06 16:26 | 14.62043 | 99.16430 | 30368 ft | 473 kts | 117° |
| 2026-05-06 16:26 | 14.60522 | 99.19453 | 30070 ft | 470 kts | 117° |
| 2026-05-06 16:27 | 14.59028 | 99.22420 | 29735 ft | 467 kts | 117° |
| 2026-05-06 16:27 | 14.57523 | 99.25409 | 29400 ft | 464 kts | 117° |
| 2026-05-06 16:27 | 14.56034 | 99.28365 | 29055 ft | 461 kts | 117° |
| 2026-05-06 16:27 | 14.54576 | 99.31260 | 28720 ft | 459 kts | 117° |
| 2026-05-06 16:28 | 14.53105 | 99.34179 | 28394 ft | 457 kts | 117° |
| 2026-05-06 16:28 | 14.51641 | 99.37081 | 28062 ft | 454 kts | 117° |
| 2026-05-06 16:28 | 14.50186 | 99.39965 | 27728 ft | 452 kts | 117° |
| 2026-05-06 16:28 | 14.48738 | 99.42834 | 27420 ft | 450 kts | 117° |
| 2026-05-06 16:29 | 14.47294 | 99.45694 | 27100 ft | 447 kts | 117° |
| 2026-05-06 16:29 | 14.45866 | 99.48535 | 26783 ft | 445 kts | 115° |
| 2026-05-06 16:29 | 14.44692 | 99.51473 | 26480 ft | 442 kts | 108° |
| 2026-05-06 16:29 | 14.43923 | 99.54487 | 26168 ft | 439 kts | 100° |
| 2026-05-06 16:30 | 14.43538 | 99.57608 | 25869 ft | 437 kts | 93° |
| 2026-05-06 16:30 | 14.43417 | 99.59714 | 25664 ft | 436 kts | 93° |
| 2026-05-06 16:30 | 14.43167 | 99.63833 | 25263 ft | 433 kts | 93° |
| 2026-05-06 16:30 | 14.42975 | 99.66893 | 24862 ft | 419 kts | 93° |
| 2026-05-06 16:31 | 14.42788 | 99.69826 | 24526 ft | 401 kts | 93° |
| 2026-05-06 16:31 | 14.42608 | 99.72649 | 24208 ft | 389 kts | 93° |
| 2026-05-06 16:31 | 14.42432 | 99.75409 | 23879 ft | 382 kts | 93° |
| 2026-05-06 16:31 | 14.42259 | 99.78138 | 23557 ft | 382 kts | 93° |
| 2026-05-06 16:32 | 14.42084 | 99.80884 | 23194 ft | 382 kts | 93° |
| 2026-05-06 16:32 | 14.41913 | 99.83570 | 22813 ft | 379 kts | 93° |
| 2026-05-06 16:32 | 14.41741 | 99.86272 | 22437 ft | 378 kts | 93° |
| 2026-05-06 16:32 | 14.41566 | 99.89012 | 22057 ft | 388 kts | 93° |
| 2026-05-06 16:33 | 14.41387 | 99.91813 | 21686 ft | 388 kts | 93° |
| 2026-05-06 16:33 | 14.41209 | 99.94573 | 21322 ft | 383 kts | 93° |
| 2026-05-06 16:33 | 14.41033 | 99.97299 | 20958 ft | 379 kts | 93° |
| 2026-05-06 16:34 | 14.40686 | 100.02680 | 20253 ft | 377 kts | 93° |
| 2026-05-06 16:34 | 14.40479 | 100.05369 | 19905 ft | 375 kts | 96° |
| 2026-05-06 16:34 | 14.39983 | 100.08002 | 19560 ft | 373 kts | 104° |
| 2026-05-06 16:34 | 14.39324 | 100.10581 | 19220 ft | 371 kts | 104° |
| 2026-05-06 16:35 | 14.38676 | 100.13158 | 18883 ft | 370 kts | 103° |
| 2026-05-06 16:35 | 14.38037 | 100.15719 | 18550 ft | 367 kts | 103° |
| 2026-05-06 16:35 | 14.37403 | 100.18263 | 18215 ft | 365 kts | 103° |
| 2026-05-06 16:35 | 14.36768 | 100.20805 | 17850 ft | 363 kts | 103° |
| 2026-05-06 16:36 | 14.36150 | 100.23280 | 17476 ft | 357 kts | 104° |
| 2026-05-06 16:36 | 14.35533 | 100.25745 | 17089 ft | 351 kts | 104° |
| 2026-05-06 16:36 | 14.34926 | 100.28169 | 16726 ft | 345 kts | 104° |
| 2026-05-06 16:36 | 14.34330 | 100.30550 | 16361 ft | 339 kts | 104° |
| 2026-05-06 16:37 | 14.33751 | 100.32859 | 16002 ft | 334 kts | 104° |
| 2026-05-06 16:37 | 14.33168 | 100.35184 | 15647 ft | 335 kts | 104° |
| 2026-05-06 16:37 | 14.32586 | 100.37507 | 15294 ft | 332 kts | 104° |
| 2026-05-06 16:37 | 14.32009 | 100.39807 | 14938 ft | 328 kts | 104° |
| 2026-05-06 16:38 | 14.31436 | 100.42087 | 14596 ft | 328 kts | 104° |
| 2026-05-06 16:38 | 14.30867 | 100.44355 | 14243 ft | 325 kts | 104° |
| 2026-05-06 16:38 | 14.30303 | 100.46601 | 13877 ft | 322 kts | 104° |
| 2026-05-06 16:38 | 14.29750 | 100.48799 | 13508 ft | 318 kts | 104° |
| 2026-05-06 16:39 | 14.29198 | 100.50992 | 13103 ft | 314 kts | 104° |
| 2026-05-06 16:39 | 14.28652 | 100.53167 | 12710 ft | 311 kts | 104° |
| 2026-05-06 16:39 | 14.28110 | 100.55318 | 12316 ft | 308 kts | 104° |
| 2026-05-06 16:39 | 14.27575 | 100.57446 | 11924 ft | 305 kts | 104° |
| 2026-05-06 16:40 | 14.27044 | 100.59551 | 11560 ft | 301 kts | 104° |
| 2026-05-06 16:40 | 14.26520 | 100.61634 | 11170 ft | 299 kts | 104° |
| 2026-05-06 16:40 | 14.25750 | 100.63603 | 10802 ft | 296 kts | 123° |
| 2026-05-06 16:40 | 14.24326 | 100.65111 | 10428 ft | 295 kts | 146° |
| 2026-05-06 16:41 | 14.22481 | 100.66053 | 10062 ft | 296 kts | 155° |
| 2026-05-06 16:41 | 14.20614 | 100.66885 | 9681 ft | 296 kts | 156° |
| 2026-05-06 16:41 | 14.18723 | 100.67717 | 9236 ft | 294 kts | 156° |
| 2026-05-06 16:41 | 14.16861 | 100.68537 | 8780 ft | 286 kts | 156° |
| 2026-05-06 16:42 | 14.15054 | 100.69337 | 8339 ft | 279 kts | 156° |
| 2026-05-06 16:42 | 14.13767 | 100.69910 | 8021 ft | 274 kts | 156° |
| 2026-05-06 16:42 | 14.12038 | 100.70680 | 7592 ft | 268 kts | 156° |
| 2026-05-06 16:42 | 14.10345 | 100.71435 | 7164 ft | 262 kts | 156° |
| 2026-05-06 16:43 | 14.08684 | 100.72177 | 6744 ft | 258 kts | 156° |
| 2026-05-06 16:43 | 14.07072 | 100.72897 | 6334 ft | 254 kts | 156° |
| 2026-05-06 16:43 | 14.05481 | 100.73652 | 5896 ft | 250 kts | 147° |
| 2026-05-06 16:43 | 14.04306 | 100.74911 | 5467 ft | 242 kts | 117° |
| 2026-05-06 16:44 | 14.03781 | 100.76524 | 5111 ft | 234 kts | 105° |
| 2026-05-06 16:44 | 14.03368 | 100.78121 | 4753 ft | 228 kts | 105° |
| 2026-05-06 16:44 | 14.02961 | 100.79679 | 4388 ft | 223 kts | 105° |
| 2026-05-06 16:44 | 14.02459 | 100.81169 | 4010 ft | 218 kts | 123° |
| 2026-05-06 16:45 | 14.01380 | 100.82174 | 3653 ft | 212 kts | 156° |
| 2026-05-06 16:45 | 13.99966 | 100.82355 | 3400 ft | 202 kts | 193° |
| 2026-05-06 16:45 | 13.98814 | 100.81646 | 3373 ft | 199 kts | 230° |
| 2026-05-06 16:45 | 13.98315 | 100.80333 | 3354 ft | 200 kts | 267° |
| 2026-05-06 16:46 | 13.98652 | 100.78976 | 3361 ft | 203 kts | 296° |
| 2026-05-06 16:46 | 13.99371 | 100.77703 | 3351 ft | 202 kts | 300° |
| 2026-05-06 16:46 | 14.00063 | 100.76449 | 3354 ft | 202 kts | 304° |
| 2026-05-06 16:46 | 14.01150 | 100.75575 | 3353 ft | 201 kts | 341° |
| 2026-05-06 16:47 | 14.02525 | 100.75554 | 3356 ft | 201 kts | 19° |
| 2026-05-06 16:47 | 14.03624 | 100.76391 | 3358 ft | 199 kts | 57° |
| 2026-05-06 16:47 | 14.03989 | 100.77734 | 3354 ft | 197 kts | 95° |
| 2026-05-06 16:47 | 14.03653 | 100.79077 | 3357 ft | 196 kts | 116° |
| 2026-05-06 16:48 | 14.03113 | 100.79812 | 3353 ft | 195 kts | 141° |
| 2026-05-06 16:49 | 13.97539 | 100.80391 | 3353 ft | 196 kts | 178° |
| 2026-05-06 16:49 | 13.96535 | 100.80424 | 3351 ft | 196 kts | 178° |
| 2026-05-06 16:49 | 13.95173 | 100.80479 | 3354 ft | 196 kts | 177° |
| 2026-05-06 16:49 | 13.93881 | 100.80443 | 3344 ft | 174 kts | 187° |
| 2026-05-06 16:50 | 13.92762 | 100.80230 | 3346 ft | 154 kts | 192° |
| 2026-05-06 16:50 | 13.91798 | 100.79981 | 3346 ft | 133 kts | 194° |
| 2026-05-06 16:50 | 13.90868 | 100.79736 | 3355 ft | 145 kts | 194° |
| 2026-05-06 16:50 | 13.90225 | 100.79566 | 3349 ft | 142 kts | 193° |
| 2026-05-06 16:52 | 13.85186 | 100.78233 | 2828 ft | 139 kts | 194° |
| 2026-05-06 16:52 | 13.84243 | 100.77984 | 2651 ft | 140 kts | 194° |
| 2026-05-06 16:52 | 13.83303 | 100.77734 | 2482 ft | 139 kts | 194° |
| 2026-05-06 16:52 | 13.82987 | 100.77649 | 2423 ft | 139 kts | 194° |
| 2026-05-06 16:53 | 13.81448 | 100.77226 | 2108 ft | 137 kts | 194° |
| 2026-05-06 16:53 | 13.80526 | 100.76971 | 1878 ft | 136 kts | 194° |
| 2026-05-06 16:53 | 13.79616 | 100.76734 | 1642 ft | 134 kts | 194° |
| 2026-05-06 16:53 | 13.78707 | 100.76504 | 1434 ft | 135 kts | 194° |
| 2026-05-06 16:54 | 13.77791 | 100.76278 | 1277 ft | 135 kts | 194° |
| 2026-05-06 16:55 | 13.72587 | 100.74893 | 455 ft | 136 kts | 194° |
| 2026-05-06 16:55 | 13.71674 | 100.74662 | 276 ft | 135 kts | 194° |
| 2026-05-06 16:56 | 13.70775 | 100.74425 | 134 ft | 133 kts | 194° |
| 2026-05-06 16:56 | 13.69886 | 100.74189 | 22 ft | 129 kts | 193° |
| 2026-05-06 16:56 | 13.69048 | 100.73955 | 65 ft | 139 kts | 195° |
| 2026-05-06 16:56 | 13.68077 | 100.73535 | 574 ft | 158 kts | 209° |
| 2026-05-06 16:57 | 13.67161 | 100.72872 | 1190 ft | 162 kts | 218° |
| 2026-05-06 16:57 | 13.66329 | 100.72085 | 1792 ft | 167 kts | 222° |
| 2026-05-06 16:57 | 13.65349 | 100.71326 | 2192 ft | 186 kts | 212° |
| 2026-05-06 16:57 | 13.64228 | 100.70555 | 2536 ft | 205 kts | 215° |
| 2026-05-06 16:58 | 13.63089 | 100.69640 | 3121 ft | 210 kts | 219° |
| 2026-05-06 16:58 | 13.61986 | 100.68624 | 3387 ft | 213 kts | 223° |
| 2026-05-06 16:58 | 13.60925 | 100.67562 | 3492 ft | 212 kts | 224° |
| 2026-05-06 16:58 | 13.59886 | 100.66483 | 3499 ft | 212 kts | 225° |
| 2026-05-06 16:59 | 13.58867 | 100.65412 | 3496 ft | 212 kts | 225° |
| 2026-05-06 16:59 | 13.57836 | 100.64330 | 3495 ft | 211 kts | 224° |
| 2026-05-06 16:59 | 13.56804 | 100.63251 | 3497 ft | 212 kts | 224° |
| 2026-05-06 16:59 | 13.55603 | 100.62414 | 3503 ft | 211 kts | 195° |
| 2026-05-06 17:00 | 13.54165 | 100.62409 | 3498 ft | 209 kts | 160° |
| 2026-05-06 17:00 | 13.52995 | 100.63259 | 3499 ft | 209 kts | 125° |
| 2026-05-06 17:00 | 13.52395 | 100.64621 | 3499 ft | 210 kts | 110° |
| 2026-05-06 17:00 | 13.51912 | 100.66038 | 3496 ft | 209 kts | 109° |
| 2026-05-06 17:01 | 13.51756 | 100.66495 | 3498 ft | 210 kts | 109° |
| 2026-05-06 17:01 | 13.49794 | 100.71937 | 3501 ft | 213 kts | 111° |
| 2026-05-06 17:02 | 13.49232 | 100.73451 | 3499 ft | 233 kts | 111° |
| 2026-05-06 17:02 | 13.48847 | 100.74488 | 3497 ft | 234 kts | 111° |
| 2026-05-06 17:02 | 13.48065 | 100.76596 | 3497 ft | 237 kts | 111° |
| 2026-05-06 17:02 | 13.47481 | 100.78170 | 3498 ft | 235 kts | 111° |
| 2026-05-06 17:03 | 13.47094 | 100.79214 | 3496 ft | 236 kts | 111° |
| 2026-05-06 17:03 | 13.46510 | 100.80791 | 3498 ft | 236 kts | 111° |
| 2026-05-06 17:03 | 13.45926 | 100.82366 | 3497 ft | 236 kts | 111° |
| 2026-05-06 17:03 | 13.45339 | 100.83948 | 3512 ft | 238 kts | 111° |
| 2026-05-06 17:04 | 13.44747 | 100.85546 | 3790 ft | 241 kts | 111° |
| 2026-05-06 17:04 | 13.44158 | 100.87159 | 4488 ft | 242 kts | 107° |
| 2026-05-06 17:04 | 13.44049 | 100.88860 | 4842 ft | 241 kts | 78° |
| 2026-05-06 17:04 | 13.44784 | 100.90401 | 4974 ft | 243 kts | 48° |
| 2026-05-06 17:05 | 13.46176 | 100.91354 | 4995 ft | 244 kts | 18° |
| 2026-05-06 17:05 | 13.47801 | 100.91783 | 4998 ft | 244 kts | 13° |
| 2026-05-06 17:05 | 13.49501 | 100.92163 | 5004 ft | 267 kts | 12° |
| 2026-05-06 17:05 | 13.51364 | 100.92597 | 4998 ft | 276 kts | 13° |
| 2026-05-06 17:06 | 13.53229 | 100.93061 | 5000 ft | 276 kts | 14° |
| 2026-05-06 17:06 | 13.55098 | 100.93547 | 4995 ft | 276 kts | 14° |
| 2026-05-06 17:06 | 13.56965 | 100.94043 | 4994 ft | 276 kts | 15° |
| 2026-05-06 17:06 | 13.58826 | 100.94541 | 4994 ft | 276 kts | 15° |
| 2026-05-06 17:07 | 13.60690 | 100.95040 | 4997 ft | 276 kts | 15° |
| 2026-05-06 17:07 | 13.62530 | 100.95533 | 4995 ft | 276 kts | 15° |
| 2026-05-06 17:07 | 13.64389 | 100.96030 | 4997 ft | 277 kts | 15° |
| 2026-05-06 17:07 | 13.66252 | 100.96528 | 4997 ft | 276 kts | 15° |
| 2026-05-06 17:08 | 13.68118 | 100.97026 | 4995 ft | 276 kts | 15° |
| 2026-05-06 17:08 | 13.69978 | 100.97523 | 4998 ft | 276 kts | 15° |
| 2026-05-06 17:08 | 13.71836 | 100.98019 | 4995 ft | 276 kts | 15° |
| 2026-05-06 17:08 | 13.73705 | 100.98518 | 4990 ft | 277 kts | 15° |
| 2026-05-06 17:09 | 13.75550 | 100.99011 | 4798 ft | 278 kts | 15° |
| 2026-05-06 17:09 | 13.77427 | 100.99501 | 4392 ft | 278 kts | 11° |
| 2026-05-06 17:09 | 13.79341 | 100.99450 | 3982 ft | 277 kts | 345° |
| 2026-05-06 17:09 | 13.81002 | 100.98519 | 3661 ft | 268 kts | 316° |
| 2026-05-06 17:10 | 13.82125 | 100.97071 | 3526 ft | 250 kts | 306° |
| 2026-05-06 17:10 | 13.83108 | 100.95691 | 3489 ft | 228 kts | 306° |
| 2026-05-06 17:10 | 13.84003 | 100.94445 | 3487 ft | 206 kts | 306° |
| 2026-05-06 17:10 | 13.84808 | 100.93331 | 3494 ft | 182 kts | 306° |
| 2026-05-06 17:11 | 13.85514 | 100.92356 | 3502 ft | 161 kts | 306° |
| 2026-05-06 17:11 | 13.86203 | 100.91405 | 3494 ft | 165 kts | 306° |
| 2026-05-06 17:11 | 13.86860 | 100.90499 | 3493 ft | 154 kts | 306° |
| 2026-05-06 17:11 | 13.87495 | 100.89622 | 3497 ft | 153 kts | 306° |
| 2026-05-06 17:12 | 13.88131 | 100.88744 | 3499 ft | 152 kts | 306° |
| 2026-05-06 17:12 | 13.88762 | 100.87871 | 3495 ft | 152 kts | 306° |
| 2026-05-06 17:12 | 13.89395 | 100.86996 | 3495 ft | 152 kts | 306° |
| 2026-05-06 17:12 | 13.90029 | 100.86119 | 3495 ft | 152 kts | 306° |
| 2026-05-06 17:13 | 13.90667 | 100.85236 | 3496 ft | 155 kts | 306° |
| 2026-05-06 17:13 | 13.91309 | 100.84349 | 3497 ft | 155 kts | 306° |
| 2026-05-06 17:13 | 13.91943 | 100.83472 | 3496 ft | 154 kts | 306° |
| 2026-05-06 17:13 | 13.92588 | 100.82579 | 3497 ft | 154 kts | 306° |
| 2026-05-06 17:14 | 13.93112 | 100.81630 | 3493 ft | 153 kts | 280° |
| 2026-05-06 17:14 | 13.92908 | 100.80586 | 3497 ft | 152 kts | 233° |
| 2026-05-06 17:14 | 13.92042 | 100.80007 | 3499 ft | 150 kts | 198° |
| 2026-05-06 17:14 | 13.91099 | 100.79764 | 3487 ft | 133 kts | 190° |
| 2026-05-06 17:15 | 13.90194 | 100.79556 | 3500 ft | 134 kts | 192° |
| 2026-05-06 17:15 | 13.89295 | 100.79320 | 3493 ft | 132 kts | 193° |
| 2026-05-06 17:15 | 13.88401 | 100.79083 | 3407 ft | 133 kts | 193° |
| 2026-05-06 17:15 | 13.87503 | 100.78846 | 3252 ft | 133 kts | 193° |
| 2026-05-06 17:16 | 13.86614 | 100.78611 | 3102 ft | 131 kts | 193° |
| 2026-05-06 17:16 | 13.85741 | 100.78380 | 2940 ft | 131 kts | 193° |
| 2026-05-06 17:16 | 13.84860 | 100.78147 | 2776 ft | 130 kts | 193° |
| 2026-05-06 17:16 | 13.83985 | 100.77916 | 2613 ft | 130 kts | 193° |
| 2026-05-06 17:17 | 13.83113 | 100.77685 | 2430 ft | 129 kts | 194° |
| 2026-05-06 17:17 | 13.82247 | 100.77449 | 2219 ft | 129 kts | 194° |
| 2026-05-06 17:17 | 13.81390 | 100.77211 | 1983 ft | 127 kts | 195° |
| 2026-05-06 17:17 | 13.80550 | 100.76979 | 1739 ft | 127 kts | 194° |
| 2026-05-06 17:18 | 13.79703 | 100.76765 | 1491 ft | 124 kts | 194° |
| 2026-05-06 17:18 | 13.78855 | 100.76547 | 1345 ft | 126 kts | 194° |
| 2026-05-06 17:18 | 13.78002 | 100.76318 | 1182 ft | 126 kts | 194° |
| 2026-05-06 17:18 | 13.77154 | 100.76093 | 1019 ft | 125 kts | 194° |
| 2026-05-06 17:19 | 13.76316 | 100.75872 | 879 ft | 125 kts | 193° |
| 2026-05-06 17:19 | 13.75468 | 100.75655 | 722 ft | 125 kts | 194° |
| 2026-05-06 17:19 | 13.74844 | 100.75494 | 638 ft | 126 kts | 193° |
| 2026-05-06 17:19 | 13.73998 | 100.75273 | 540 ft | 125 kts | 192° |
| 2026-05-06 17:20 | 13.73155 | 100.75043 | 415 ft | 125 kts | 193° |
| 2026-05-06 17:20 | 13.72311 | 100.74826 | 307 ft | 124 kts | 193° |
| 2026-05-06 17:20 | 13.71472 | 100.74608 | 189 ft | 124 kts | 193° |
| 2026-05-06 17:20 | 13.70640 | 100.74389 | 89 ft | 123 kts | 193° |
| 2026-05-06 17:21 | 13.69824 | 100.74175 | 14 ft | 117 kts | 194° |
| 2026-05-06 17:21 | 13.69220 | 100.74020 | 12 ft | 65 kts | 194° |
| 2026-05-06 17:21 | 13.68845 | 100.73972 | 14 ft | 47 kts | 166° |
| 2026-05-06 17:21 | 13.68709 | 100.74077 | 14 ft | 21 kts | 104° |
| 2026-05-06 17:22 | 13.68743 | 100.74184 | 13 ft | 12 kts | 12° |
| 2026-05-06 17:22 | 13.68805 | 100.74250 | 13 ft | 18 kts | 88° |
| 2026-05-06 17:22 | 13.68793 | 100.74386 | 14 ft | 5 kts | 56° |
| 2026-05-06 17:22 | 13.68840 | 100.74409 | 13 ft | 14 kts | 20° |
| 2026-05-06 17:23 | 13.68869 | 100.74468 | 13 ft | 12 kts | 103° |
| 2026-05-06 17:23 | 13.68857 | 100.74516 | 13 ft | 0 kts | 105° |